KMGR/MGR METAR and TAF weather

Enter ICAO airport designator
Station Type Date Time Source
KMGR METAR 2020/04/10 19:15 UTC NOAA

KMGR 101915Z AUTO 34011KT 10SM CLR 21/01 A2993 RMK AO2


Station Type Date Time Source
KMGR Decoded METAR 2020/04/10 19:15 UTC NOAA

Moultrie, Moultrie Municipal Airport, GA, United States (KMGR) 31-05-05N 083-48-11W
Apr 10, 2020 - 03:15 PM EDT / 2020.04.10 1915 UTC
Wind: from the NNW (340 degrees) at 13 MPH (11 KT):0
Visibility: 10 mile(s):0
Sky conditions: clear
Temperature: 69 F (21 C)
Dew Point: 33 F (1 C)
Relative Humidity: 26%
Pressure (altimeter): 29.93 in. Hg (1013 hPa)
ob: KMGR 101915Z AUTO 34011KT 10SM CLR 21/01 A2993 RMK AO2
cycle: 19

Station Type Date Time Source
KMGR TAF UTC NOAA

Error!

Example: see airport list